Terminal Aerodrome Forecast
Issued by NWS

Current Version | Previous Version | Text Only | Print | Product List | Glossary Off
Versions: 1 2 3 4 5 6 7 8 9 10 11 12 13 14 15 16 17 18 19 20 21 22 23 24 25 26

639
FTUS41 KPBZ 300922 AAA
TAFMGW
TAF AMD
KMGW 300922Z 3009/0106 03005KT P6SM BKN200
      TEMPO 3009/3012 2SM BR
     FM301500 21008KT P6SM SCT040
     FM010000 16007KT P6SM SKC=

USA.gov is the U.S. government's official web portal to all federal, state and local government web resources and services.